Latest Weather Observations for Archerfield

IDQ60801

Issued at 6:31 pm EST Wednesday 5 August 2015 (issued every 30 minutes, with the page automatically refreshed every 10 minutes)

About weather observations | Map of weather stations | Latest weather observations for QLD | Other Formats
Station Details ID: 040211 Name: ARCHERFIELD AIRPORT Lat: -27.57 Lon: 153.01 Height: 12.5 m
Data from the previous 72 hours. | See also: Recent months at Archerfield
Date/Time
EST
Temp
°C
App
Temp
°C
Dew
Point
Rel
Hum
%
Delta-T
°C
Wind Press
QNH
hPa
Press
MSL
hPa
Rain
since 9 am
mm
Dir
 
Spd
km/h
Gust
km/h
Spd
kts
Gust
kts
05/06:30pm 14.1 7.4 -1.1 35 6.2 W 24 35 13 19 1015.0 1015.0 0.0
05/06:00pm 14.7 7.7 -0.6 35 6.4 W 26 35 14 19 1014.6 1014.6 0.0
05/05:30pm 15.4 9.1 -1.2 32 6.9 W 22 32 12 17 1014.1 1014.1 0.0
05/05:00pm 16.4 8.5 -1.7 29 7.5 W 30 43 16 23 1013.7 1013.7 0.0
05/04:30pm 17.4 9.1 -1.8 27 8.0 W 32 41 17 22 1013.2 1013.2 0.0
05/04:00pm 18.2 9.9 -1.6 26 8.3 W 32 44 17 24 1012.9 1012.9 0.0
05/03:30pm 18.9 10.9 -2.1 24 8.8 WNW 30 41 16 22 1012.9 1012.9 0.0
05/03:00pm 19.0 13.1 -0.9 26 8.6 WNW 20 32 11 17 1012.8 1012.8 0.0
05/02:30pm 19.1 12.4 -1.4 25 8.7 WNW 24 35 13 19 1012.9 1012.9 0.0
05/02:00pm 18.6 12.3 -0.7 27 8.3 WNW 22 35 12 19 1013.2 1013.2 0.0
05/01:30pm 18.0 11.2 -1.8 26 8.3 W 24 32 13 17 1013.6 1013.6 0.0
05/01:00pm 17.7 10.6 -1.5 27 8.1 WNW 26 35 14 19 1014.1 1014.1 0.0
05/12:30pm 17.4 10.6 -1.8 27 8.0 W 24 32 13 17 1014.7 1014.7 0.0
05/12:00pm 16.6 9.9 -1.0 30 7.4 W 24 37 13 20 1015.2 1015.2 0.0
05/11:30am 16.6 9.7 0.3 33 7.0 W 26 39 14 21 1015.6 1015.6 0.0
05/11:00am 15.3 8.3 -0.4 34 6.6 W 26 35 14 19 1016.3 1016.3 0.0
05/10:30am 14.4 7.5 -0.1 37 6.1 W 26 35 14 19 1016.7 1016.7 0.0
05/10:00am 13.4 7.3 0.4 41 5.4 W 22 30 12 16 1017.2 1017.2 0.0
05/09:30am 13.1 7.5 1.1 44 5.1 W 20 32 11 17 1017.3 1017.3 0.0
05/09:00am 11.3 4.4 0.1 46 4.6 W 26 39 14 21 1017.3 1017.3 0.0
05/08:30am 10.7 3.9 0.7 50 4.1 W 26 37 14 20 1017.3 1017.3 0.0
05/08:00am 9.7 3.2 0.6 53 3.7 W 24 33 13 18 1017.3 1017.3 0.0
05/07:30am 8.6 2.8 0.1 55 3.4 W 20 32 11 17 1017.1 1017.1 0.0
05/07:00am 7.7 2.1 0.0 58 3.0 W 19 24 10 13 1017.0 1017.0 0.0
05/06:30am 7.0 1.2 -0.2 60 2.8 W 20 32 11 17 1016.8 1016.8 0.0
05/06:00am 6.8 1.6 -0.2 61 2.7 WSW 17 24 9 13 1016.7 1016.7 0.0
05/05:30am 7.5 1.9 0.0 59 2.9 W 19 28 10 15 1016.5 1016.5 0.0
05/05:00am 7.7 1.9 0.2 59 2.9 W 20 28 11 15 1016.2 1016.2 0.0
05/04:30am 7.8 2.3 0.3 59 3.0 W 19 30 10 16 1016.3 1016.3 0.0
05/04:00am 8.0 2.3 0.5 59 3.0 WSW 20 26 11 14 1016.2 1016.2 0.0
05/03:30am 8.5 2.9 1.0 59 3.0 WSW 20 28 11 15 1016.3 1016.3 0.0
05/03:00am 8.9 3.3 1.1 58 3.2 W 20 30 11 16 1016.7 1016.7 0.0
05/02:30am 9.2 3.3 1.4 58 3.2 W 22 30 12 16 1016.9 1016.9 0.0
05/02:00am 9.5 3.2 1.7 58 3.2 W 24 32 13 17 1017.2 1017.2 0.0
05/01:30am 9.8 3.2 1.9 58 3.3 W 26 35 14 19 1017.5 1017.5 0.0
05/01:00am 10.4 2.7 2.5 58 3.4 W 32 43 17 23 1017.5 1017.5 0.0
05/12:30am 11.0 4.5 2.8 57 3.5 W 26 33 14 18 1017.3 1017.3 0.0
05/12:00am 11.2 6.1 3.3 58 3.5 WNW 19 28 10 15 1017.5 1017.5 0.0
 
Date/Time
EST
Temp
°C
App
Temp
°C
Dew
Point
Rel
Hum
%
Delta-T
°C
Wind Press
QNH
hPa
Press
MSL
hPa
Rain
since 9 am
mm
Dir
 
Spd
km/h
Gust
km/h
Spd
kts
Gust
kts
04/11:30pm 11.3 7.0 3.3 58 3.5 WNW 15 24 8 13 1017.7 1017.7 0.0
04/11:00pm 11.7 6.7 3.5 57 3.6 WNW 19 26 10 14 1017.6 1017.6 0.0
04/10:30pm 12.5 6.9 3.2 53 4.1 W 22 32 12 17 1017.6 1017.6 0.0
04/10:00pm 13.1 7.5 3.2 51 4.4 W 22 28 12 15 1017.6 1017.6 0.0
04/09:30pm 13.7 9.1 3.5 50 4.6 WNW 17 28 9 15 1017.5 1017.5 0.0
04/09:00pm 13.5 10.0 7.1 65 3.1 WNW 15 19 8 10 1017.4 1017.4 0.0
04/08:30pm 14.5 14.3 10.3 76 2.2 W 2 9 1 5 1017.3 1017.3 0.0
04/08:00pm 15.6 14.7 11.2 75 2.4 NW 7 15 4 8 1017.5 1017.5 0.0
04/07:30pm 14.4 13.7 11.4 82 1.6 NE 6 15 3 8 1017.2 1017.2 0.0
04/07:00pm 13.8 12.0 9.3 74 2.3 NNE 9 13 5 7 1017.1 1017.1 0.0
04/06:30pm 15.3 13.2 9.9 70 2.8 ENE 11 17 6 9 1017.1 1017.1 0.0
04/06:00pm 16.4 14.1 10.5 68 3.1 ENE 13 17 7 9 1016.7 1016.7 0.0
04/05:30pm 17.3 14.6 10.4 64 3.7 E 15 20 8 11 1016.5 1016.5 0.0
04/05:00pm 18.2 15.3 9.8 58 4.4 ENE 15 19 8 10 1016.5 1016.5 0.0
04/04:30pm 19.5 16.7 10.0 54 5.1 E 15 20 8 11 1016.4 1016.4 0.0
04/04:00pm 20.2 18.1 9.7 51 5.6 SE 11 15 6 8 1016.4 1016.4 0.0
04/03:30pm 19.9 18.2 9.8 52 5.4 E 9 15 5 8 1016.6 1016.6 0.0
04/03:00pm 20.3 18.1 9.5 50 5.7 ESE 11 19 6 10 1016.7 1016.7 0.0
04/02:30pm 19.8 18.4 9.7 52 5.4 SSE 7 15 4 8 1017.0 1017.0 0.0
04/02:00pm 20.2 18.8 9.5 50 5.7 SSE 7 13 4 7 1017.2 1017.2 0.0
04/01:30pm 21.5 20.5 10.3 49 6.1 ESE 6 17 3 9 1017.4 1017.4 0.0
04/01:00pm 20.1 18.2 9.1 49 5.8 SSW 9 13 5 7 1017.8 1017.8 0.0
04/12:30pm 20.1 17.8 9.1 49 5.8 SSW 11 15 6 8 1018.1 1018.1 0.0
04/12:00pm 19.8 17.1 8.8 49 5.8 SE 13 22 7 12 1018.5 1018.5 0.0
04/11:30am 19.4 16.4 7.5 46 6.1 WSW 13 19 7 10 1019.2 1019.2 0.0
04/11:00am 18.7 15.7 7.5 48 5.7 WSW 13 20 7 11 1019.7 1019.7 0.0
04/10:30am 18.0 13.5 5.9 45 5.9 W 19 28 10 15 1020.1 1020.1 0.0
04/10:00am 17.7 13.2 5.9 46 5.7 WSW 19 24 10 13 1020.1 1020.1 0.0
04/09:30am 16.9 13.2 6.1 49 5.3 WSW 15 19 8 10 1020.4 1020.4 0.0
04/09:00am 15.3 10.7 5.8 53 4.5 WSW 19 22 10 12 1019.8 1019.8 0.0
04/08:30am 14.6 10.3 5.4 54 4.3 WSW 17 24 9 13 1019.8 1019.8 0.0
04/08:00am 14.6 10.7 5.4 54 4.3 SW 15 20 8 11 1019.6 1019.6 0.0
04/07:30am 13.7 9.3 4.8 55 4.1 WSW 17 24 9 13 1019.5 1019.5 0.0
04/07:00am 13.1 8.7 4.8 57 3.8 WSW 17 24 9 13 1019.1 1019.1 0.0
04/06:30am 13.0 9.3 4.7 57 3.8 WSW 13 20 7 11 1018.9 1018.9 0.0
04/06:00am 13.3 9.3 4.7 56 4.0 WSW 15 22 8 12 1018.4 1018.4 0.0
04/05:30am 13.4 9.0 4.8 56 4.0 WSW 17 22 9 12 1018.1 1018.1 0.0
04/05:00am 13.5 9.9 4.9 56 4.0 WSW 13 19 7 10 1017.8 1017.8 0.0
04/04:30am 13.2 10.0 5.1 58 3.8 SW 11 17 6 9 1017.4 1017.4 0.0
04/04:00am 12.8 9.2 4.8 58 3.7 SW 13 17 7 9 1017.1 1017.1 0.0
04/03:30am 12.9 9.6 4.6 57 3.8 WSW 11 17 6 9 1017.0 1017.0 0.0
04/03:00am 12.8 9.2 4.8 58 3.7 W 13 19 7 10 1016.9 1016.9 0.0
04/02:30am 13.4 9.8 5.1 57 3.9 W 13 20 7 11 1017.0 1017.0 0.0
04/02:00am 14.3 10.8 5.4 55 4.2 WSW 13 20 7 11 1016.9 1016.9 0.0
04/01:30am 14.9 11.1 5.7 54 4.4 WSW 15 20 8 11 1016.7 1016.7 0.0
04/01:00am 15.4 10.9 6.1 54 4.5 WSW 19 28 10 15 1016.9 1016.9 0.0
04/12:30am 15.6 10.7 6.9 56 4.3 W 22 32 12 17 1017.0 1017.0 0.0
04/12:00am 16.4 11.2 7.3 55 4.5 W 24 30 13 16 1017.0 1017.0 0.0
 
Date/Time
EST
Temp
°C
App
Temp
°C
Dew
Point
Rel
Hum
%
Delta-T
°C
Wind Press
QNH
hPa
Press
MSL
hPa
Rain
since 9 am
mm
Dir
 
Spd
km/h
Gust
km/h
Spd
kts
Gust
kts
03/11:30pm 17.0 12.5 8.7 58 4.3 W 22 30 12 16 1017.4 1017.4 0.0
03/11:00pm 17.8 13.3 8.6 55 4.7 W 22 32 12 17 1017.2 1017.2 0.0
03/10:30pm 17.9 13.9 9.0 56 4.6 W 20 24 11 13 1016.9 1016.9 0.0
03/10:00pm 18.3 14.8 8.8 54 4.9 W 17 24 9 13 1017.1 1017.1 0.0
03/09:30pm 18.5 16.4 9.6 56 4.7 W 11 19 6 10 1017.2 1017.2 0.0
03/09:00pm 17.0 15.6 9.7 62 3.8 ENE 7 11 4 6 1016.5 1016.5 0.0
03/08:30pm 18.1 15.1 10.7 62 4.0 W 17 20 9 11 1016.3 1016.3 0.0
03/08:00pm 17.5 19.2 15.1 86 1.4 CALM 0 6 0 3 1016.4 1016.4 0.0
03/07:30pm 17.9 19.6 15.3 85 1.5 CALM 0 7 0 4 1015.9 1015.9 0.0
03/07:00pm 17.9 18.0 14.4 80 2.0 N 7 11 4 6 1015.7 1015.7 0.0
03/06:30pm 18.5 18.4 15.0 80 2.0 NE 9 11 5 6 1015.5 1015.5 0.0
03/06:00pm 19.5 18.6 15.8 79 2.2 N 15 19 8 10 1015.2 1015.2 0.0
03/05:30pm 20.4 19.6 15.2 72 3.1 NE 13 17 7 9 1014.6 1014.6 0.0
03/05:00pm 22.3 20.8 15.4 65 4.1 NNE 17 19 9 10 1014.3 1014.3 0.0
03/04:30pm 24.3 22.7 15.0 56 5.6 NE 17 20 9 11 1014.1 1014.1 0.0
03/04:00pm 25.9 24.0 13.1 45 7.5 NNE 15 19 8 10 1014.0 1014.0 0.0
03/03:30pm 26.6 24.6 12.6 42 8.1 NNW 15 22 8 12 1013.9 1013.9 0.0
03/03:00pm 27.1 25.3 10.7 35 9.2 W 11 17 6 9 1014.1 1014.1 0.0
03/02:30pm 27.2 25.4 10.8 36 9.3 WNW 11 20 6 11 1014.3 1014.3 0.0
03/02:00pm 26.8 24.7 11.3 38 8.8 NW 13 22 7 12 1014.6 1014.6 0.0
03/01:30pm 26.1 23.8 10.3 37 8.8 NW 13 19 7 10 1014.9 1014.9 0.0
03/01:00pm 25.9 22.5 10.5 38 8.6 WNW 19 24 10 13 1015.5 1015.5 0.0
03/12:30pm 25.5 23.4 12.4 44 7.5 NNW 15 22 8 12 1016.0 1016.0 0.0
03/12:00pm 24.3 23.1 12.9 49 6.6 NNW 11 19 6 10 1016.6 1016.6 0.0
03/11:30am 23.7 22.9 13.0 51 6.2 NNW 9 17 5 9 1017.3 1017.3 0.0
03/11:00am 22.9 22.9 12.5 52 5.9 NW 4 11 2 6 1017.9 1017.9 0.0
03/10:30am 21.9 22.0 12.7 56 5.2 N 4 9 2 5 1018.5 1018.5 0.0
03/10:00am 20.8 21.1 13.3 62 4.3 N 4 7 2 4 1019.0 1019.0 0.0
03/09:30am 19.0 19.7 13.4 70 3.2 S 2 6 1 3 1019.3 1019.3 0.0
03/09:00am 16.8 16.7 13.3 80 2.0 SSW 6 9 3 5 1019.4 1019.4 0.0
03/08:30am 14.7 14.3 12.4 86 1.3 SW 6 9 3 5 1019.4 1019.4 0.0
03/08:00am 13.0 12.2 11.7 92 0.7 SSW 7 9 4 5 1019.3 1019.3 0.0
03/07:30am 11.8 11.0 11.0 95 0.4 S 6 9 3 5 1018.9 1018.9 0.0
03/07:00am 10.0 8.5 9.2 95 0.4 SSW 7 9 4 5 1018.6 1018.6 0.0
03/06:30am 9.7 9.4 8.8 94 0.4 CALM 0 0 0 0 1018.2 1018.2 0.0
03/06:00am 10.5 10.5 9.9 96 0.3 CALM 0 0 0 0 1018.3 1018.3 0.0
03/05:30am 10.2 9.0 9.6 96 0.3 SSW 6 6 3 3 1018.2 1018.2 0.0
03/05:00am 10.0 8.7 9.2 95 0.4 SW 6 7 3 4 1017.9 1017.9 0.0
03/04:30am 10.6 9.2 9.7 94 0.5 S 7 9 4 5 1017.8 1017.8 0.0
03/04:00am 10.7 9.5 9.5 92 0.6 S 6 7 3 4 1017.9 1017.9 0.0
03/03:30am 11.6 10.7 10.7 94 0.5 S 6 7 3 4 1018.0 1018.0 0.0
03/03:00am 12.2 10.9 11.3 94 0.5 S 9 11 5 6 1018.1 1018.1 0.0
03/02:30am 12.7 11.5 11.6 93 0.6 S 9 11 5 6 1018.2 1018.2 0.0
03/02:00am 13.9 14.6 12.1 89 1.0 CALM 0 0 0 0 1018.4 1018.4 0.0
03/01:30am 13.8 14.6 12.4 91 0.8 CALM 0 0 0 0 1018.5 1018.5 0.0
03/01:00am 14.3 13.9 12.5 89 1.0 NNW 6 7 3 4 1018.9 1018.9 0.0
03/12:30am 14.1 12.9 11.6 85 1.3 N 9 11 5 6 1019.0 1019.0 0.0
03/12:00am 15.4 14.5 12.7 84 1.5 N 9 9 5 5 1019.3 1019.3 0.0
 
Date/Time
EST
Temp
°C
App
Temp
°C
Dew
Point
Rel
Hum
%
Delta-T
°C
Wind Press
QNH
hPa
Press
MSL
hPa
Rain
since 9 am
mm
Dir
 
Spd
km/h
Gust
km/h
Spd
kts
Gust
kts
02/11:30pm 16.3 15.3 13.4 83 1.6 NNW 11 17 6 9 1019.4 1019.4 0.0
02/11:00pm 16.5 15.2 13.8 84 1.5 N 13 17 7 9 1019.3 1019.3 0.0
02/10:30pm 16.1 14.3 13.4 84 1.5 NNE 15 19 8 10 1019.5 1019.5 0.0
02/10:00pm 17.1 14.8 14.2 83 1.7 NNE 19 22 10 12 1019.4 1019.4 0.0
02/09:30pm 17.5 15.7 14.4 82 1.8 N 17 20 9 11 1019.5 1019.5 0.0
02/09:00pm 18.2 15.8 14.5 79 2.1 N 20 26 11 14 1019.5 1019.5 0.0
02/08:30pm 18.0 16.1 14.3 79 2.1 N 17 22 9 12 1019.4 1019.4 0.0
02/08:00pm 18.4 16.0 14.5 78 2.2 N 20 24 11 13 1019.4 1019.4 0.0
02/07:30pm 18.6 16.4 14.5 77 2.4 NNE 19 26 10 14 1019.2 1019.2 0.0
02/07:00pm 17.9 15.9 14.0 78 2.2 NNE 17 22 9 12 1019.3 1019.3 0.0

Other Formats:

Comma delimited format used in spreadsheet applications
http://www.bom.gov.au/fwo/IDQ60801/IDQ60801.94575.axf

JavaScript Object Notation format (JSON) in row-major order
http://www.bom.gov.au/fwo/IDQ60801/IDQ60801.94575.json